Flight Track Log - Related Links

Times and Time Zones

All times are in EDT time to prevent confusion due to time zone crossing. See the AAL832 flight status page for this flight to view local times or setup timezone preferences in your user account.

Time Position Orientation Groundspeed Altitude Reporting Facility
EDT Latitude Longitude Course Direction KTS MPH feet Rate Location/Type
Wed 05:52:52 PM 41.9333 -87.9000 180° South 187 215 3,000  Level Chicago TRACON
Wed 05:53:46 PM 41.8667 -87.9000 180° South 254 292 5,000 2,563 Climbing Chicago TRACON
Wed 05:54:35 PM 41.8097 -87.8933 175° South 253 291 7,400 3,189 Climbing Chicago Center
Wed 05:55:37 PM 41.7328 -87.8572 161° South 292 336 10,900 3,072 Climbing Chicago Center
Wed 05:56:00 PM 41.5415 -87.6502 166° South  Level Estimated
Wed 05:56:40 PM 41.6536 -87.8233 162° South 300 345 13,800  Level Chicago Center
Wed 05:57:00 PM 41.4314 -87.5866 180° South  Level Estimated
Wed 05:57:42 PM 41.5681 -87.7869 162° South 318 366 16,900  Level Chicago Center
Wed 05:58:00 PM 41.3249 -87.5254 180° South  Level Estimated
Wed 05:58:44 PM 41.4519 -87.7392 163° South 364 419 18,700  Level Chicago Center
Wed 05:59:46 PM 41.3392 -87.7253 175° South 402 463 21,000 2,081 Climbing Chicago Center
Wed 06:00:48 PM 41.2219 -87.7264 180° South 415 478 23,000 2,032 Climbing Chicago Center
Wed 06:01:50 PM 41.0997 -87.7133 175° South 432 497 25,200 1,935 Climbing Chicago Center
Wed 06:02:52 PM 40.9781 -87.6750 167° South 454 522 27,000 871 Climbing Chicago Center
Wed 06:03:54 PM 40.8589 -87.6161 160° South 458 527 27,000 1,306 Level Chicago Center
Wed 06:04:56 PM 40.7314 -87.5144 149° Southeast 444 511 29,700 1,742 Climbing Chicago Center
Wed 06:05:58 PM 40.6194 -87.4350 152° Southeast 457 526 30,600 1,210 Climbing Chicago Center
Wed 06:07:00 PM 40.4917 -87.3853 164° South 480 552 32,200 1,694 Climbing Chicago Center
Wed 06:08:02 PM 40.3619 -87.3294 162° South 476 548 34,100 1,776 Climbing Chicago Center
Wed 06:09:05 PM 40.2353 -87.2808 164° South 474 545 35,900 1,426 Climbing Chicago Center
Wed 06:10:04 PM 40.1083 -87.2319 164° South 472 543 37,000 545 Climbing Indianapolis Center
Wed 06:11:06 PM 39.9839 -87.1825 163° South 472 543 37,000  Level Indianapolis Center
Wed 06:12:08 PM 39.8597 -87.1328 163° South 471 542 37,000 629 Level Indianapolis Center
Wed 06:13:10 PM 39.7147 -87.0656 160° South 466 536 38,300 968 Climbing Indianapolis Center
Wed 06:14:12 PM 39.5933 -87.0097 160° South 466 536 39,000 341 Climbing Indianapolis Center
Wed 06:15:13 PM 39.4733 -86.9539 160° South 464 534 39,000  Level Indianapolis Center
Wed 06:16:15 PM 39.3544 -86.9000 161° South 459 528 39,000  Level Indianapolis Center
Wed 06:17:17 PM 39.2347 -86.8447 160° South 460 529 39,000  Level Indianapolis Center
Wed 06:18:19 PM 39.1056 -86.7864 161° South 467 537 39,000  Level Indianapolis Center
Wed 06:19:21 PM 38.9561 -86.7161 160° South 472 543 39,000  Level Indianapolis Center
Wed 06:20:23 PM 38.8303 -86.6581 160° South 475 547 39,000  Level Indianapolis Center
Wed 06:21:25 PM 38.7044 -86.6000 160° South 476 548 39,000  Level Indianapolis Center
Wed 06:22:27 PM 38.5781 -86.5414 160° South 476 548 39,000  Level Indianapolis Center
Wed 06:23:29 PM 38.4522 -86.4833 160° South 476 548 39,000  Level Indianapolis Center
Wed 06:24:31 PM 38.3261 -86.4264 160° South 475 547 39,000  Level Indianapolis Center
Wed 06:25:33 PM 38.1997 -86.3678 160° South 476 548 39,000  Level Indianapolis Center
Wed 06:26:35 PM 38.0739 -86.3108 160° South 476 548 39,000  Level Indianapolis Center
Wed 06:27:37 PM 37.9472 -86.2558 161° South 477 549 39,000  Level Indianapolis Center
Wed 06:28:39 PM 37.7967 -86.1883 160° South 475 547 39,000  Level Indianapolis Center
Wed 06:29:41 PM 37.6719 -86.1322 160° South 474 545 39,000  Level Indianapolis Center
Wed 06:30:43 PM 37.5517 -86.0792 161° South 473 544 39,000  Level Indianapolis Center
Wed 06:31:45 PM 37.4267 -86.0250 161° South 469 540 39,000  Level Indianapolis Center
Wed 06:32:47 PM 37.3011 -85.9706 161° South 468 539 39,000  Level Indianapolis Center
Wed 06:33:49 PM 37.1742 -85.9144 161° South 472 543 39,000  Level Indianapolis Center
Wed 06:34:51 PM 37.0264 -85.8503 161° South 473 544 39,000  Level Indianapolis Center
Wed 06:35:53 PM 36.9006 -85.7936 160° South 470 541 39,000  Level Indianapolis Center
Wed 06:36:55 PM 36.7731 -85.7372 160° South 474 545 39,000  Level Indianapolis Center
Wed 06:37:57 PM 36.6544 -85.6858 161° South 471 542 39,000  Level Indianapolis Center
Wed 06:38:59 PM 36.5289 -85.6319 161° South 476 548 39,000  Level Indianapolis Center
Wed 06:40:02 PM 36.3781 -85.5675 161° South 479 551 39,000  Level Indianapolis Center
Wed 06:41:04 PM 36.2528 -85.5139 161° South 480 552 39,000  Level Indianapolis Center
Wed 06:42:06 PM 36.1264 -85.4608 161° South 480 552 39,000  Level Indianapolis Center
Wed 06:42:46 PM 36.0483 -85.4281 161° South 468 539 39,000  Level Atlanta Center
Wed 06:43:46 PM 35.9197 -85.3747 161° South 478 550 39,000  Level Atlanta Center
Wed 06:44:46 PM 35.7950 -85.3239 162° South 478 550 39,000  Level Atlanta Center
Wed 06:45:46 PM 35.6683 -85.2708 161° South 478 550 39,000  Level Atlanta Center
Wed 06:46:46 PM 35.5458 -85.2153 160° South 478 550 39,000  Level Atlanta Center
Wed 06:47:46 PM 35.4044 -85.1600 162° South 478 550 39,000  Level Atlanta Center
Wed 06:48:46 PM 35.2797 -85.1047 160° South 478 550 39,000  Level Atlanta Center
Wed 06:49:46 PM 35.1528 -85.0550 162° South 478 550 39,000  Level Atlanta Center
Wed 06:50:46 PM 35.0303 -85.0053 162° South 478 550 39,000  Level Atlanta Center
Wed 06:51:46 PM 34.9011 -84.9531 162° South 478 550 39,000  Level Atlanta Center
Wed 06:52:46 PM 34.7764 -84.9011 161° South 478 550 39,000  Level Atlanta Center
Wed 06:53:46 PM 34.6764 -84.8597 161° South 478 550 39,000  Level Atlanta Center
Wed 06:54:46 PM 34.5286 -84.8003 162° South 478 550 39,000  Level Atlanta Center
Wed 06:55:46 PM 34.4036 -84.7489 161° South 478 550 39,000  Level Atlanta Center
Wed 06:56:46 PM 34.2808 -84.6975 161° South 478 550 39,000  Level Atlanta Center
Wed 06:57:46 PM 34.1539 -84.6489 162° South 478 550 39,000  Level Atlanta Center
Wed 06:58:46 PM 34.0289 -84.5978 161° South 478 550 39,000  Level Atlanta Center
Wed 06:59:46 PM 33.9058 -84.5469 161° South 478 550 39,000  Level Atlanta Center
Wed 07:00:46 PM 33.7789 -84.4986 162° South 478 550 39,000  Level Atlanta Center
Wed 07:01:46 PM 33.6703 -84.4531 161° South 473 544 39,000  Level Atlanta Center
Wed 07:02:46 PM 33.5306 -84.4325 173° South 468 539 39,000  Level Atlanta Center
Wed 07:03:46 PM 33.4033 -84.4319 180° South 462 532 39,000  Level Atlanta Center
Wed 07:04:46 PM 33.2761 -84.4289 179° South 459 528 39,000  Level Atlanta Center
Wed 07:05:46 PM 33.1508 -84.4258 179° South 452 520 39,000  Level Atlanta Center
Wed 07:06:46 PM 33.0214 -84.4253 180° South 457 526 39,000  Level Atlanta Center
Wed 07:07:46 PM 32.8961 -84.4222 179° South 457 526 39,000  Level Atlanta Center
Wed 07:08:46 PM 32.7833 -84.4217 180° South 462 532 39,000  Level Atlanta Center
Wed 07:09:46 PM 32.6561 -84.4164 178° South 457 526 39,000  Level Atlanta Center
Wed 07:10:46 PM 32.5308 -84.4158 180° South 457 526 39,000  Level Atlanta Center
Wed 07:11:46 PM 32.4014 -84.4128 179° South 457 526 39,000  Level Atlanta Center
Wed 07:12:46 PM 32.2761 -84.4072 178° South 457 526 39,000  Level Atlanta Center
Wed 07:14:15 PM 32.0739 -84.4053 180° South 451 519 39,000  Level Jacksonville Center
Wed 07:15:15 PM 31.9467 -84.4008 178° South 456 525 39,000  Level Jacksonville Center
Wed 07:16:15 PM 31.8194 -84.3986 179° South 461 531 39,000  Level Jacksonville Center
Wed 07:17:15 PM 31.6919 -84.3967 179° South 461 531 39,000  Level Jacksonville Center
Wed 07:18:15 PM 31.5606 -84.3897 177° South 461 531 39,000  Level Jacksonville Center
Wed 07:19:15 PM 31.4381 -84.3389 161° South 461 531 39,000  Level Jacksonville Center
Wed 07:20:15 PM 31.3156 -84.2786 157° South 472 543 39,000  Level Jacksonville Center
Wed 07:21:15 PM 31.2011 -84.2261 159° South 486 559 39,000  Level Jacksonville Center
Wed 07:22:15 PM 31.0786 -84.1708 159° South 486 559 39,000  Level Jacksonville Center
Wed 07:23:15 PM 30.9558 -84.1136 158° South 486 559 39,000  Level Jacksonville Center
Wed 07:24:15 PM 30.8311 -84.0539 158° South 486 559 39,000  Level Jacksonville Center
Wed 07:25:15 PM 30.7064 -83.9967 158° South 486 559 39,000  Level Jacksonville Center
Wed 07:26:15 PM 30.5817 -83.9397 159° South 486 559 39,000  Level Jacksonville Center
Wed 07:27:15 PM 30.4528 -83.8781 158° South 474 545 39,000  Level Jacksonville Center
Wed 07:28:15 PM 30.3300 -83.8239 159° South 474 545 39,000  Level Jacksonville Center
Wed 07:29:15 PM 30.2050 -83.7675 159° South 474 545 39,000  Level Jacksonville Center
Wed 07:30:15 PM 30.0844 -83.7111 158° South 474 545 39,000  Level Jacksonville Center
Wed 07:31:15 PM 29.9614 -83.6550 158° South 474 545 39,000  Level Jacksonville Center
Wed 07:32:15 PM 29.8408 -83.6039 160° South 469 540 39,000  Level Jacksonville Center
Wed 07:33:15 PM 29.7200 -83.5478 158° South 469 540 39,000  Level Jacksonville Center
Wed 07:34:15 PM 29.6011 -83.4944 159° South 469 540 39,000  Level Jacksonville Center
Wed 07:35:15 PM 29.4803 -83.4389 158° South 464 534 39,000  Level Jacksonville Center
Wed 07:36:15 PM 29.3636 -83.3858 158° South 464 534 39,000  Level Jacksonville Center
Wed 07:37:15 PM 29.2553 -83.3378 159° South 464 534 39,000  Level Jacksonville Center
Wed 07:38:15 PM 29.1406 -83.2825 157° South 464 534 39,000  Level Jacksonville Center
Wed 07:39:15 PM 29.0219 -83.2297 159° South 464 534 39,000  Level Jacksonville Center
Wed 07:40:15 PM 28.9031 -83.1772 159° South 464 534 39,000  Level Jacksonville Center
Wed 07:41:15 PM 28.7819 -83.1200 158° South 459 528 39,000  Level Jacksonville Center
Wed 07:42:15 PM 28.6631 -83.0653 158° South 459 528 39,000  Level Jacksonville Center
Wed 07:43:15 PM 28.5442 -83.0131 159° South 465 535 39,000  Level Jacksonville Center
Wed 07:44:15 PM 28.4253 -82.9586 158° South 465 535 39,000  Level Jacksonville Center
Wed 07:45:15 PM 28.3086 -82.9092 160° South 459 528 39,000  Level Jacksonville Center
Wed 07:45:46 PM 28.2331 -82.8742 158° South 460 529 39,000  Level Miami Center
Wed 07:46:46 PM 28.1144 -82.8183 157° South 460 529 39,000  Level Miami Center
Wed 07:47:46 PM 27.9936 -82.7628 158° South 465 535 39,000  Level Miami Center
Wed 07:48:46 PM 27.8767 -82.7119 159° South 465 535 39,000  Level Miami Center
Wed 07:49:46 PM 27.7742 -82.6717 161° South 452 520 39,000  Level Miami Center
Wed 07:50:46 PM 27.6550 -82.6281 162° South 447 514 39,000  Level Miami Center
Wed 07:51:46 PM 27.5275 -82.5794 161° South 452 520 39,000  Level Miami Center
Wed 07:52:46 PM 27.4081 -82.5361 162° South 452 520 39,000  Level Miami Center
Wed 07:53:46 PM 27.3033 -82.4936 160° South 452 520 39,000 -50 Level Miami Center
Wed 07:54:46 PM 27.1808 -82.4222 153° Southeast 452 520 38,900 -850 Descending Miami Center
Wed 07:55:46 PM 27.0797 -82.3381 143° Southeast 464 534 37,300 -1,700 Descending Miami Center
Wed 07:56:46 PM 26.9914 -82.2500 138° Southeast 458 527 35,500 -2,450 Descending Miami Center
Wed 07:57:46 PM 26.8967 -82.1528 138° Southeast 458 527 32,400 -3,150 Descending Miami Center
Wed 07:58:46 PM 26.8050 -82.0392 132° Southeast 472 543 29,200 -2,750 Descending Miami Center
Wed 07:59:46 PM 26.7147 -81.9306 133° Southeast 477 549 26,900 -2,300 Descending Miami Center
Wed 08:00:46 PM 26.6244 -81.8269 134° Southeast 472 543 24,600 -2,100 Descending Miami Center
Wed 08:01:46 PM 26.5422 -81.7258 132° Southeast 459 528 22,700 -2,000 Descending Miami Center
Wed 08:02:46 PM 26.4600 -81.6250 132° Southeast 447 514 20,600 -2,050 Descending Miami Center
Wed 08:03:46 PM 26.3753 -81.5289 135° Southeast 435 501 18,600 -1,900 Descending Miami Center
Wed 08:04:46 PM 26.2967 -81.4403 135° Southeast 420 483 16,800 -1,300 Descending Miami Center
Wed 08:05:46 PM 26.2203 -81.3469 132° Southeast 410 472 16,000 -400 Descending Miami Center
Wed 08:06:46 PM 26.1397 -81.2514 133° Southeast 410 472 16,000  Level Miami Center
Wed 08:07:46 PM 26.0589 -81.1558 133° Southeast 410 472 16,000  Level Miami Center
Wed 08:08:22 PM 25.9983 -81.0914 136° Southeast 421 484 16,000  Level Miami Center
Wed 08:08:46 PM 25.9781 -81.0628 128° Southeast 415 478 16,000  Level Miami Center
Wed 08:09:05 PM 25.9436 -81.0294 139° Southeast 419 482 16,000 -100 Level Miami Center
Wed 08:09:46 PM 25.9033 -80.9772 131° Southeast 400 460 15,900  Descending Miami Center
Wed 08:10:06 PM 25.8794 -80.9394 125° Southeast 369 425 16,000  Climbing Miami Center
Wed 08:10:46 PM 25.8603 -80.8717 107° East 374 430 15,900 -393 Descending Miami Center
Wed 08:11:07 PM 25.8447 -80.8297 112° Southeast 382 440 15,600 -1,400 Descending Miami Center
Wed 08:11:46 PM 25.8300 -80.7578 103° East 374 430 14,500 -1,869 Descending Miami Center
Wed 08:12:08 PM 25.8125 -80.7064 111° Southeast 380 437 13,700 -1,800 Descending Miami Center
Wed 08:12:46 PM 25.8014 -80.6506 102° East 374 430 12,700 -1,672 Descending Miami Center
Wed 08:13:09 PM 25.7819 -80.5969 112° Southeast 368 423 12,000 -800 Descending Miami Center
Wed 08:13:46 PM 25.7711 -80.5322 101° East 369 425 11,900 -295 Descending Miami Center
Wed 08:14:10 PM 25.7533 -80.4922 116° Southeast 358 412 11,700 -786 Descending Miami Center
Wed 08:15:10 PM 25.7264 -80.3925 107° East 319 367 10,800 -1,000 Descending Miami Center
Wed 08:15:46 PM 25.7131 -80.3344 104° East 338 389 10,100 -1,180 Descending Miami Center
Wed 08:16:11 PM 25.6994 -80.2994 113° Southeast 306 352 9,600 -1,000 Descending Miami Center
Wed 08:16:46 PM 25.6817 -80.2503 112° Southeast 312 359 9,100 -984 Descending Miami Center
Wed 08:17:12 PM 25.6636 -80.2200 123° Southeast 267 307 8,600 -1,200 Descending Miami Center
Wed 08:17:46 PM 25.6478 -80.1803 114° Southeast 281 323 7,900 -1,475 Descending Miami Center
Wed 08:18:13 PM 25.6317 -80.1522 122° Southeast 245 282 7,100 -1,841 Descending Miami Center
Wed 08:19:14 PM 25.6000 -80.0822 117° Southeast 239 275 5,200 -1,770 Descending Miami Center
Wed 08:20:15 PM 25.6403 -80.0442 40° Northeast 217 250 3,500 -1,082 Descending Miami Center
Wed 08:21:16 PM 25.6853 -80.0914 317° Northwest 218 251 3,000 -393 Descending Miami Center
Wed 08:22:17 PM 25.7175 -80.1478 302° West 209 241 2,700 -295 Descending Miami Center

Login

Don't have an account? Register now (free) for customized features, flight alerts, and more!